Time;durP1;ratioP1;P1;durP2;ratioP2;P2;SDS_P1;SDS_P2;PMS_P1;PMS_P2;Temp;Humidity;BMP_temperature;BMP_pressure;BME280_temperature;BME280_humidity;BME280_pressure;Samples;Min_cycle;Max_cycle;Signal;HPM_P1;HPM_P2
2021/05/26 00:00:39;;;;;;;6.79;2.69;;;;;;;;;;353471;152;865846;-61
2021/05/26 00:01:41;;;;;;;3.46;2.43;;;;;;;;;;352638;149;858936;-61
2021/05/26 00:02:42;;;;;;;3.76;2.69;;;;;;;;;;352954;151;864723;-61
2021/05/26 00:03:44;;;;;;;7.04;2.50;;;;;;;;;;353091;152;860312;-61
2021/05/26 00:04:46;;;;;;;6.55;2.84;;;;;;;;;;353064;149;858020;-61
2021/05/26 00:05:48;;;;;;;5.01;2.24;;;;;;;;;;345701;155;857894;-61
2021/05/26 00:06:50;;;;;;;6.97;2.16;;;;;;;;;;346253;152;865087;-61
2021/05/26 00:07:52;;;;;;;6.02;2.49;;;;;;;;;;354223;149;859049;-62
2021/05/26 00:08:53;;;;;;;6.64;2.76;;;;;;;;;;353661;150;857370;-62
2021/05/26 00:09:55;;;;;;;3.84;2.43;;;;;;;;;;355326;149;859949;-62
2021/05/26 00:10:57;;;;;;;3.77;2.41;;;;;;;;;;355280;149;857349;-62
2021/05/26 00:11:59;;;;;;;8.01;2.41;;;;;;;;;;346421;152;859129;-62
2021/05/26 00:13:01;;;;;;;6.27;2.45;;;;;;;;;;347724;152;860159;-62
2021/05/26 00:14:02;;;;;;;2.96;2.41;;;;;;;;;;357603;149;864793;-62
2021/05/26 00:15:05;;;;;;;4.27;2.01;;;;;;;;;;356832;149;857250;-62
2021/05/26 00:16:07;;;;;;;3.95;2.14;;;;;;;;;;354168;149;860491;-62
2021/05/26 00:17:09;;;;;;;3.70;2.07;;;;;;;;;;354106;150;857336;-62
2021/05/26 00:18:11;;;;;;;7.05;2.35;;;;;;;;;;352956;149;865492;-62
2021/05/26 00:19:13;;;;;;;4.71;2.53;;;;;;;;;;352862;150;859446;-62
2021/05/26 00:20:15;;;;;;;7.44;2.53;;;;;;;;;;353239;150;858179;-62
2021/05/26 00:21:18;;;;;;;5.81;2.38;;;;;;;;;;353012;149;857789;-62
2021/05/26 00:22:20;;;;;;;6.75;2.15;;;;;;;;;;353036;152;859950;-62
2021/05/26 00:23:21;;;;;;;3.83;1.89;;;;;;;;;;348452;152;857334;-62
2021/05/26 00:24:23;;;;;;;4.31;1.89;;;;;;;;;;340788;155;858082;-62
2021/05/26 00:25:25;;;;;;;5.14;2.16;;;;;;;;;;346504;152;864719;-62
2021/05/26 00:26:27;;;;;;;3.28;2.05;;;;;;;;;;353189;149;864963;-62
2021/05/26 00:27:29;;;;;;;4.52;1.82;;;;;;;;;;353348;150;859954;-62
2021/05/26 00:28:32;;;;;;;5.79;2.09;;;;;;;;;;353215;149;857507;-62
2021/05/26 00:29:33;;;;;;;5.23;2.26;;;;;;;;;;352276;149;857926;-63
2021/05/26 00:30:43;;;;;;;6.49;2.55;;;;;;;;;;353478;152;857880;-62
2021/05/26 00:31:39;;;;;;;3.95;1.89;;;;;;;;;;353893;149;859858;-62
2021/05/26 00:32:41;;;;;;;5.20;2.03;;;;;;;;;;354463;150;865269;-63
2021/05/26 00:33:42;;;;;;;4.28;1.97;;;;;;;;;;352903;149;865677;-63
2021/05/26 00:34:44;;;;;;;10.79;2.80;;;;;;;;;;354594;149;857984;-64
2021/05/26 00:35:46;;;;;;;14.84;2.71;;;;;;;;;;354768;150;865967;-64
2021/05/26 00:36:47;;;;;;;11.71;3.33;;;;;;;;;;355855;149;859811;-63
2021/05/26 00:37:49;;;;;;;6.29;2.13;;;;;;;;;;348247;152;857356;-63
2021/05/26 00:38:51;;;;;;;6.56;2.22;;;;;;;;;;343298;156;857751;-63
2021/05/26 00:39:52;;;;;;;7.49;2.21;;;;;;;;;;348765;151;866937;-64
2021/05/26 00:40:54;;;;;;;10.35;2.47;;;;;;;;;;348945;152;859134;-64
2021/05/26 00:41:56;;;;;;;6.82;2.51;;;;;;;;;;342781;155;857864;-64
2021/05/26 00:42:57;;;;;;;11.17;2.60;;;;;;;;;;342783;155;866620;-63
2021/05/26 00:43:59;;;;;;;5.95;2.30;;;;;;;;;;340071;156;859593;-63
2021/05/26 00:45:01;;;;;;;11.19;2.43;;;;;;;;;;347568;152;866222;-63
2021/05/26 00:46:02;;;;;;;3.12;2.29;;;;;;;;;;346885;155;858701;-63
2021/05/26 00:47:05;;;;;;;4.41;1.99;;;;;;;;;;345456;155;864795;-63
2021/05/26 00:48:07;;;;;;;2.96;2.11;;;;;;;;;;344402;153;857393;-63
2021/05/26 00:49:09;;;;;;;3.59;2.15;;;;;;;;;;345109;155;857804;-62
2021/05/26 00:50:13;;;;;;;4.91;2.15;;;;;;;;;;344319;155;857270;-62
2021/05/26 00:51:14;;;;;;;7.92;2.17;;;;;;;;;;343543;155;857214;-62
2021/05/26 00:52:17;;;;;;;6.53;2.61;;;;;;;;;;343266;157;859160;-62
2021/05/26 00:53:19;;;;;;;4.51;2.57;;;;;;;;;;343216;154;865789;-62
2021/05/26 00:54:20;;;;;;;4.51;2.44;;;;;;;;;;343414;155;859039;-62
2021/05/26 00:55:22;;;;;;;3.31;2.26;;;;;;;;;;342277;155;857240;-62
2021/05/26 00:56:25;;;;;;;4.39;2.18;;;;;;;;;;342775;155;867172;-63
2021/05/26 00:57:27;;;;;;;6.83;2.68;;;;;;;;;;343476;154;866734;-63
2021/05/26 00:58:29;;;;;;;5.07;2.09;;;;;;;;;;348806;152;859439;-63
2021/05/26 00:59:31;;;;;;;3.73;2.16;;;;;;;;;;352772;152;859152;-63
2021/05/26 01:00:34;;;;;;;4.75;2.08;;;;;;;;;;349000;152;865637;-63
2021/05/26 01:01:36;;;;;;;5.28;2.33;;;;;;;;;;338730;158;857407;-63
2021/05/26 01:02:38;;;;;;;5.05;2.37;;;;;;;;;;339623;158;857494;-63
2021/05/26 01:03:40;;;;;;;5.66;2.26;;;;;;;;;;341171;155;859082;-63
2021/05/26 01:04:42;;;;;;;7.03;2.25;;;;;;;;;;342908;155;859883;-62
2021/05/26 01:05:44;;;;;;;6.47;2.27;;;;;;;;;;342678;155;857291;-62
2021/05/26 01:06:45;;;;;;;11.19;2.50;;;;;;;;;;342972;155;859041;-62
2021/05/26 01:07:47;;;;;;;9.03;2.63;;;;;;;;;;342750;157;858260;-63
2021/05/26 01:08:49;;;;;;;5.47;2.29;;;;;;;;;;342738;155;857530;-62
2021/05/26 01:09:51;;;;;;;4.78;2.38;;;;;;;;;;343280;155;858990;-62
2021/05/26 01:10:53;;;;;;;8.33;2.61;;;;;;;;;;344037;155;858155;-62
2021/05/26 01:11:55;;;;;;;8.69;3.01;;;;;;;;;;343411;155;866329;-63
2021/05/26 01:12:58;;;;;;;4.66;2.47;;;;;;;;;;343365;156;857479;-62
2021/05/26 01:14:00;;;;;;;6.19;2.68;;;;;;;;;;340344;155;858355;-62
2021/05/26 01:15:02;;;;;;;6.01;2.35;;;;;;;;;;343224;155;857330;-63
2021/05/26 01:16:03;;;;;;;5.61;2.61;;;;;;;;;;344578;155;866503;-63
2021/05/26 01:17:05;;;;;;;8.01;2.56;;;;;;;;;;343407;155;859925;-63
2021/05/26 01:18:20;;;;;;;8.46;2.54;;;;;;;;;;343036;155;865556;-63
2021/05/26 01:19:21;;;;;;;2.28;2.06;;;;;;;;;;343436;156;866772;-62
2021/05/26 01:20:26;;;;;;;3.93;2.20;;;;;;;;;;342399;155;857810;-62
2021/05/26 01:21:28;;;;;;;4.71;2.53;;;;;;;;;;337846;157;865741;-62
2021/05/26 01:22:30;;;;;;;5.69;2.17;;;;;;;;;;340527;155;865180;-62
2021/05/26 01:23:32;;;;;;;6.04;2.42;;;;;;;;;;339903;155;866805;-63
2021/05/26 01:24:34;;;;;;;4.35;2.03;;;;;;;;;;342125;156;857639;-62
2021/05/26 01:25:35;;;;;;;4.77;2.36;;;;;;;;;;343572;155;859477;-61
2021/05/26 01:26:39;;;;;;;3.04;2.15;;;;;;;;;;342313;156;858925;-62
2021/05/26 01:27:41;;;;;;;4.37;2.13;;;;;;;;;;343029;154;858165;-62
2021/05/26 01:28:42;;;;;;;4.58;2.51;;;;;;;;;;343612;153;857814;-62
2021/05/26 01:29:44;;;;;;;4.22;2.34;;;;;;;;;;341775;156;866510;-62
2021/05/26 01:30:46;;;;;;;5.03;2.53;;;;;;;;;;348512;152;859155;-63
2021/05/26 01:31:48;;;;;;;4.06;2.12;;;;;;;;;;342657;153;860378;-62
2021/05/26 01:32:51;;;;;;;4.31;2.39;;;;;;;;;;344319;156;866185;-62
2021/05/26 01:33:52;;;;;;;5.36;2.52;;;;;;;;;;344879;155;864835;-63
2021/05/26 01:34:54;;;;;;;5.40;2.86;;;;;;;;;;348341;152;857394;-62
2021/05/26 01:35:56;;;;;;;3.59;2.14;;;;;;;;;;347783;153;859526;-62
2021/05/26 01:53:51;;;;;;;5.92;1.85;;;;;;;16.44;60.09;99957.17;376863;142;882441;-59
2021/05/26 01:54:53;;;;;;;4.89;2.38;;;;;;;16.30;60.22;99954.98;366012;144;858820;-59
2021/05/26 01:55:55;;;;;;;7.52;2.41;;;;;;;16.28;60.31;99956.80;369396;144;865225;-59
2021/05/26 01:56:56;;;;;;;2.85;2.27;;;;;;;16.28;60.31;99956.80;367491;144;857448;-60
2021/05/26 01:57:58;;;;;;;3.66;1.99;;;;;;;;;;369513;144;858183;-60
2021/05/26 01:59:00;;;;;;;3.04;2.24;;;;;;;;;;366194;147;865684;-60
2021/05/26 02:00:03;;;;;;;3.56;2.41;;;;;;;;;;370498;144;857060;-59
2021/05/26 02:01:04;;;;;;;3.68;2.39;;;;;;;;;;366294;144;865758;-60
2021/05/26 02:02:06;;;;;;;9.35;2.41;;;;;;;;;;371724;144;857235;-60
2021/05/26 02:03:08;;;;;;;3.01;2.27;;;;;;;;;;367788;144;865203;-60
2021/05/26 02:04:09;;;;;;;2.34;2.14;;;;;;;;;;366522;144;858732;-60
2021/05/26 02:05:11;;;;;;;4.04;2.29;;;;;;;;;;366532;144;858986;-59
2021/05/26 02:06:18;;;;;;;3.46;2.06;;;;;;;;;;366037;144;858061;-60
2021/05/26 02:07:19;;;;;;;4.58;2.47;;;;;;;;;;365974;147;859052;-60
2021/05/26 02:08:21;;;;;;;3.09;2.34;;;;;;;;;;368284;144;857199;-60
2021/05/26 02:09:22;;;;;;;4.52;2.83;;;;;;;;;;366951;144;859006;-60
2021/05/26 02:12:46;;;;;;;4.60;2.44;;;;;;;;;;361505;146;857925;-60
2021/05/26 02:12:57;;;;;;;4.96;2.33;;;;;;;;;;355437;147;857581;-59
2021/05/26 02:14:01;;;;;;;2.87;2.30;;;;;;;;;;363502;144;858758;-59
2021/05/26 02:15:03;;;;;;;5.74;2.60;;;;;;;;;;358587;147;857392;-60
2021/05/26 02:16:05;;;;;;;4.85;2.72;;;;;;;;;;360687;147;858324;-59
2021/05/26 02:17:06;;;;;;;4.89;2.56;;;;;;;;;;360465;144;859088;-60
2021/05/26 02:18:08;;;;;;;4.10;2.48;;;;;;;;;;364509;147;857330;-60
2021/05/26 02:19:09;;;;;;;3.00;2.55;;;;;;;;;;363131;145;857157;-60
2021/05/26 02:20:12;;;;;;;4.73;2.46;;;;;;;;;;361777;147;857360;-60
2021/05/26 02:21:14;;;;;;;5.59;2.54;;;;;;;;;;360887;147;857765;-60
2021/05/26 02:22:15;;;;;;;3.79;2.28;;;;;;;;;;360249;145;859952;-60
2021/05/26 02:23:17;;;;;;;4.30;2.39;;;;;;;;;;359951;146;857407;-60
2021/05/26 02:24:19;;;;;;;7.96;2.24;;;;;;;;;;363269;147;857263;-60
2021/05/26 02:25:20;;;;;;;3.54;2.30;;;;;;;;;;364037;146;857347;-60
2021/05/26 02:26:22;;;;;;;7.98;2.35;;;;;;;;;;362132;147;865354;-59
2021/05/26 02:27:24;;;;;;;3.27;2.41;;;;;;;;;;361051;147;858697;-59
2021/05/26 02:28:25;;;;;;;3.61;2.27;;;;;;;;;;362964;145;857342;-59
2021/05/26 02:29:27;;;;;;;3.26;2.39;;;;;;;;;;365360;147;857358;-61
2021/05/26 02:30:30;;;;;;;4.21;2.22;;;;;;;;;;363651;146;857417;-60
2021/05/26 02:31:32;;;;;;;4.39;1.88;;;;;;;;;;361048;147;861109;-59
2021/05/26 02:32:34;;;;;;;4.45;2.17;;;;;;;;;;364265;147;865022;-60
2021/05/26 02:33:35;;;;;;;4.19;2.15;;;;;;;;;;360808;146;857402;-59
2021/05/26 02:34:37;;;;;;;6.03;2.11;;;;;;;;;;360830;147;856624;-62
2021/05/26 02:35:38;;;;;;;5.70;2.28;;;;;;;;;;360719;147;857430;-61
2021/05/26 02:36:40;;;;;;;3.94;2.38;;;;;;;;;;361421;146;857351;-61
2021/05/26 02:37:42;;;;;;;4.39;2.38;;;;;;;;;;363427;147;866604;-60
2021/05/26 02:38:43;;;;;;;3.19;2.13;;;;;;;;;;363491;145;857159;-59
2021/05/26 02:39:45;;;;;;;8.06;2.51;;;;;;;;;;362748;145;859472;-60
2021/05/26 02:40:46;;;;;;;6.49;2.07;;;;;;;;;;364916;147;859447;-60
2021/05/26 02:41:48;;;;;;;4.84;2.10;;;;;;;;;;363760;145;864860;-60
2021/05/26 02:42:50;;;;;;;4.26;2.16;;;;;;;;;;361030;147;857198;-60
2021/05/26 02:43:51;;;;;;;4.62;2.34;;;;;;;;;;363179;147;857265;-60
2021/05/26 02:44:53;;;;;;;3.62;2.11;;;;;;;;;;363505;146;857257;-62
2021/05/26 02:45:54;;;;;;;6.34;2.46;;;;;;;;;;364693;146;857264;-60
2021/05/26 02:46:56;;;;;;;4.46;2.59;;;;;;;;;;362056;147;859070;-59
2021/05/26 02:47:58;;;;;;;5.37;2.36;;;;;;;;;;362641;147;859088;-60
2021/05/26 02:49:00;;;;;;;4.56;2.41;;;;;;;;;;362895;147;865707;-59
2021/05/26 02:50:03;;;;;;;6.52;2.65;;;;;;;;;;362607;147;858703;-60
2021/05/26 02:51:04;;;;;;;5.09;2.46;;;;;;;;;;363616;146;865907;-60
2021/05/26 02:52:06;;;;;;;5.70;2.56;;;;;;;;;;362862;144;858734;-59
2021/05/26 02:53:08;;;;;;;4.21;2.12;;;;;;;;;;360025;147;857368;-60
2021/05/26 02:54:09;;;;;;;3.96;2.32;;;;;;;;;;361147;147;857397;-60
2021/05/26 02:55:12;;;;;;;3.94;2.02;;;;;;;;;;360338;144;857224;-60
2021/05/26 02:56:14;;;;;;;3.46;1.92;;;;;;;;;;361278;147;857899;-59
2021/05/26 02:57:15;;;;;;;3.29;1.89;;;;;;;;;;363386;147;857283;-59
2021/05/26 02:58:17;;;;;;;3.45;2.18;;;;;;;;;;360530;147;858346;-58
2021/05/26 02:59:19;;;;;;;2.99;2.14;;;;;;;;;;361691;145;859341;-58
2021/05/26 03:00:22;;;;;;;4.92;1.93;;;;;;;;;;363369;145;857422;-58
2021/05/26 03:01:24;;;;;;;3.11;2.02;;;;;;;;;;363731;145;858706;-57
2021/05/26 03:02:25;;;;;;;2.86;2.16;;;;;;;;;;363334;146;857292;-58
2021/05/26 03:03:27;;;;;;;3.91;2.16;;;;;;;;;;363172;148;857518;-58
2021/05/26 03:04:29;;;;;;;4.28;1.91;;;;;;;;;;361743;145;859013;-58
2021/05/26 03:05:30;;;;;;;4.01;2.22;;;;;;;;;;361261;146;859646;-58
2021/05/26 03:06:34;;;;;;;3.83;2.07;;;;;;;;;;359169;147;859001;-58
2021/05/26 03:07:35;;;;;;;4.68;2.20;;;;;;;;;;361347;144;859160;-58
2021/05/26 03:08:37;;;;;;;4.94;2.24;;;;;;;;;;361921;145;864484;-58
2021/05/26 03:09:38;;;;;;;5.44;1.90;;;;;;;;;;362112;147;857416;-58
2021/05/26 03:10:42;;;;;;;3.48;2.13;;;;;;;;;;361613;145;857352;-60
2021/05/26 03:11:43;;;;;;;3.81;2.26;;;;;;;;;;369270;145;857834;-58
2021/05/26 03:12:45;;;;;;;3.41;1.77;;;;;;;;;;362619;146;866401;-59
2021/05/26 03:13:47;;;;;;;5.68;2.27;;;;;;;;;;361659;147;858848;-58
2021/05/26 03:14:48;;;;;;;4.89;2.14;;;;;;;;;;361635;147;859597;-58
2021/05/26 03:15:50;;;;;;;2.23;2.03;;;;;;;;;;363352;145;859450;-60
2021/05/26 03:16:52;;;;;;;3.76;2.09;;;;;;;;;;362127;146;858347;-58
2021/05/26 03:17:53;;;;;;;3.14;1.95;;;;;;;;;;361832;145;864816;-60
2021/05/26 03:18:55;;;;;;;4.78;2.04;;;;;;;;;;363682;145;857377;-59
2021/05/26 03:19:56;;;;;;;2.58;1.96;;;;;;;;;;362132;147;857391;-58
2021/05/26 03:20:58;;;;;;;3.30;2.30;;;;;;;;;;361300;147;857424;-57
2021/05/26 03:22:00;;;;;;;4.99;2.25;;;;;;;;;;361540;146;864995;-57
2021/05/26 03:23:02;;;;;;;3.14;1.97;;;;;;;;;;363743;147;857320;-59
2021/05/26 03:24:04;;;;;;;4.86;2.02;;;;;;;;;;363168;147;857330;-58
2021/05/26 03:25:06;;;;;;;5.28;2.07;;;;;;;;;;361579;147;859105;-59
2021/05/26 03:26:09;;;;;;;3.77;2.24;;;;;;;;;;361888;145;858303;-59
2021/05/26 03:27:10;;;;;;;4.93;2.09;;;;;;;;;;363061;146;857771;-58
2021/05/26 03:28:12;;;;;;;2.54;2.14;;;;;;;;;;360751;146;865492;-59
2021/05/26 03:29:15;;;;;;;2.55;2.02;;;;;;;;;;359363;145;857448;-59
2021/05/26 03:30:18;;;;;;;2.14;1.92;;;;;;;;;;361349;145;865553;-60
2021/05/26 03:31:20;;;;;;;5.95;2.24;;;;;;;;;;363426;144;859025;-59
2021/05/26 03:32:22;;;;;;;3.92;1.84;;;;;;;;;;365409;144;865975;-61
2021/05/26 03:33:23;;;;;;;3.57;1.86;;;;;;;;;;363732;144;858311;-59
2021/05/26 03:34:25;;;;;;;6.35;2.80;;;;;;;;;;362350;147;858089;-60
2021/05/26 03:35:27;;;;;;;4.58;2.26;;;;;;;;;;361382;147;857317;-59
2021/05/26 03:36:30;;;;;;;3.01;2.24;;;;;;;;;;365115;147;857333;-59
2021/05/26 03:37:32;;;;;;;4.01;1.96;;;;;;;;;;363864;144;859987;-59
2021/05/26 03:38:33;;;;;;;3.41;1.97;;;;;;;;;;363648;146;864642;-58
2021/05/26 03:39:35;;;;;;;3.32;1.69;;;;;;;;;;363869;145;857350;-59
2021/05/26 03:40:37;;;;;;;3.51;2.12;;;;;;;;;;362194;144;863937;-59
2021/05/26 03:41:39;;;;;;;2.73;2.12;;;;;;;;;;364260;144;857424;-59
2021/05/26 03:42:41;;;;;;;3.86;2.13;;;;;;;;;;363860;144;857306;-58
2021/05/26 03:43:43;;;;;;;4.87;1.87;;;;;;;;;;362695;144;857286;-59
2021/05/26 03:44:44;;;;;;;2.54;1.72;;;;;;;;;;361664;145;857251;-60
2021/05/26 03:45:46;;;;;;;3.34;2.15;;;;;;;;;;365440;147;866329;-59
2021/05/26 03:46:48;;;;;;;4.70;2.60;;;;;;;;;;364122;145;858953;-60
2021/05/26 03:47:50;;;;;;;4.10;2.41;;;;;;;;;;360671;147;857225;-60
2021/05/26 03:48:51;;;;;;;2.54;2.18;;;;;;;;;;360164;144;857234;-60
2021/05/26 03:49:53;;;;;;;3.22;2.04;;;;;;;;;;362713;146;859034;-59
2021/05/26 03:50:55;;;;;;;3.72;2.18;;;;;;;;;;365613;145;867323;-59
2021/05/26 03:51:56;;;;;;;4.31;2.32;;;;;;;;;;364974;145;865078;-58
2021/05/26 03:52:58;;;;;;;3.47;2.38;;;;;;;;;;360430;145;857985;-65
2021/05/26 03:54:00;;;;;;;5.32;2.32;;;;;;;;;;362338;147;865400;-59
2021/05/26 03:55:01;;;;;;;3.99;2.32;;;;;;;;;;360160;147;859654;-61
2021/05/26 03:56:03;;;;;;;3.86;2.44;;;;;;;;;;362545;146;865894;-59
2021/05/26 03:57:05;;;;;;;4.34;2.48;;;;;;;;;;361509;147;865342;-59
2021/05/26 03:58:07;;;;;;;5.53;2.60;;;;;;;;;;361368;144;864964;-62
2021/05/26 03:59:09;;;;;;;6.54;2.70;;;;;;;;;;360994;145;857514;-59
2021/05/26 04:00:14;;;;;;;9.29;2.87;;;;;;;;;;363293;144;858765;-61
2021/05/26 04:01:15;;;;;;;8.87;2.74;;;;;;;;;;363105;144;865229;-60
2021/05/26 04:02:17;;;;;;;4.76;2.51;;;;;;;;;;363798;145;858355;-59
2021/05/26 04:03:21;;;;;;;8.15;2.50;;;;;;;;;;359290;149;864847;-60
2021/05/26 04:04:23;;;;;;;7.14;2.51;;;;;;;;;;362122;146;857357;-62
2021/05/26 04:05:24;;;;;;;7.41;2.86;;;;;;;;;;362818;147;864954;-63
2021/05/26 04:06:26;;;;;;;12.27;3.00;;;;;;;;;;362978;147;860024;-61
2021/05/26 04:07:28;;;;;;;5.81;2.42;;;;;;;;;;363678;145;857909;-61
2021/05/26 04:08:29;;;;;;;4.51;2.84;;;;;;;;;;362970;147;857675;-60
2021/05/26 04:09:31;;;;;;;4.89;2.69;;;;;;;;;;362149;144;860119;-60
2021/05/26 04:10:33;;;;;;;5.64;2.89;;;;;;;;;;361667;144;858283;-59
2021/05/26 04:11:35;;;;;;;5.74;2.71;;;;;;;;;;361287;147;857332;-63
2021/05/26 04:12:37;;;;;;;5.09;2.84;;;;;;;;;;362537;146;863986;-61
2021/05/26 04:13:38;;;;;;;3.67;2.59;;;;;;;;;;361939;145;864960;-63
2021/05/26 04:14:40;;;;;;;5.39;2.69;;;;;;;;;;365072;144;859795;-63
2021/05/26 04:15:41;;;;;;;4.74;2.56;;;;;;;;;;362876;144;857917;-65
2021/05/26 04:16:44;;;;;;;4.09;2.99;;;;;;;;;;361706;144;857288;-61
2021/05/26 04:17:45;;;;;;;6.78;2.79;;;;;;;;;;363011;147;858579;-67
2021/05/26 04:18:47;;;;;;;4.21;2.53;;;;;;;;;;362104;145;866269;-61
2021/05/26 04:19:49;;;;;;;5.45;2.93;;;;;;;;;;362183;144;864762;-63
2021/05/26 04:20:51;;;;;;;4.07;2.65;;;;;;;;;;363350;147;857315;-61
2021/05/26 04:21:53;;;;;;;5.29;2.87;;;;;;;;;;360975;145;857324;-58
2021/05/26 04:22:54;;;;;;;4.79;2.56;;;;;;;;;;365175;145;857550;-60
2021/05/26 04:23:56;;;;;;;4.39;2.52;;;;;;;;;;363698;144;857458;-60
2021/05/26 04:24:58;;;;;;;7.59;2.37;;;;;;;;;;361198;145;857471;-62
2021/05/26 04:26:00;;;;;;;5.79;2.78;;;;;;;;;;359869;145;857251;-60
2021/05/26 04:27:01;;;;;;;7.00;3.12;;;;;;;;;;360874;146;858750;-60
2021/05/26 04:28:03;;;;;;;4.99;2.91;;;;;;;;;;362255;146;858125;-59
2021/05/26 04:29:07;;;;;;;4.84;2.46;;;;;;;;;;362054;145;858809;-61
2021/05/26 04:30:09;;;;;;;6.37;2.65;;;;;;;;;;363105;145;865596;-62
2021/05/26 04:31:11;;;;;;;4.57;2.51;;;;;;;;;;362509;145;857442;-60
2021/05/26 04:32:13;;;;;;;4.43;2.65;;;;;;;;;;364133;144;859323;-63
2021/05/26 04:33:16;;;;;;;4.14;2.72;;;;;;;;;;362316;145;857431;-64
2021/05/26 04:34:18;;;;;;;6.34;2.79;;;;;;;;;;362337;144;857242;-62
2021/05/26 04:35:19;;;;;;;6.34;2.64;;;;;;;;;;364007;144;857240;-61
2021/05/26 04:36:22;;;;;;;6.37;2.75;;;;;;;;;;360718;146;857750;-60
2021/05/26 04:37:23;;;;;;;3.87;2.89;;;;;;;;;;362140;145;866552;-62
2021/05/26 04:38:25;;;;;;;3.54;2.54;;;;;;;;;;362914;145;859059;-62
2021/05/26 04:39:26;;;;;;;5.11;2.70;;;;;;;;;;363169;145;860053;-61
2021/05/26 04:40:30;;;;;;;6.90;2.75;;;;;;;;;;364830;145;857383;-59
2021/05/26 04:41:32;;;;;;;7.20;2.84;;;;;;;;;;362718;145;859179;-62
2021/05/26 04:42:33;;;;;;;7.97;2.81;;;;;;;;;;359060;148;866852;-60
2021/05/26 04:43:35;;;;;;;5.51;3.09;;;;;;;;;;361650;145;857402;-59
2021/05/26 04:44:36;;;;;;;5.11;2.89;;;;;;;;;;362024;144;856663;-59
2021/05/26 04:45:38;;;;;;;6.56;3.06;;;;;;;;;;364267;144;866018;-60
2021/05/26 04:46:41;;;;;;;3.14;2.72;;;;;;;;;;363633;144;859423;-60
2021/05/26 04:47:43;;;;;;;7.19;3.07;;;;;;;;;;361991;144;857260;-61
2021/05/26 04:48:44;;;;;;;5.26;3.00;;;;;;;;;;361146;145;859495;-60
2021/05/26 04:49:46;;;;;;;6.69;3.37;;;;;;;;;;362064;145;858415;-59
2021/05/26 04:50:48;;;;;;;5.54;3.12;;;;;;;;;;363384;147;857336;-62
2021/05/26 04:51:50;;;;;;;3.73;3.09;;;;;;;;;;364125;144;857242;-61
2021/05/26 04:52:51;;;;;;;6.48;3.04;;;;;;;;;;362203;144;857285;-60
2021/05/26 04:53:53;;;;;;;4.19;3.35;;;;;;;;;;364771;145;857399;-60
2021/05/26 04:54:54;;;;;;;3.01;2.21;;;;;;;;;;362226;144;864989;-73
2021/05/26 04:55:56;;;;;;;3.96;2.79;;;;;;;;;;363855;145;857373;-63
2021/05/26 04:56:58;;;;;;;4.74;3.21;;;;;;;;;;367582;145;859089;-60
2021/05/26 04:58:00;;;;;;;5.46;3.49;;;;;;;;;;363013;145;864925;-63
2021/05/26 04:59:02;;;;;;;5.43;3.21;;;;;;;;;;361135;146;857418;-61
2021/05/26 05:00:05;;;;;;;4.26;3.01;;;;;;;;;;363066;145;858018;-61
2021/05/26 05:01:06;;;;;;;5.83;3.39;;;;;;;;;;364395;144;857934;-62
2021/05/26 05:02:08;;;;;;;5.24;3.35;;;;;;;;;;362334;147;866853;-62
2021/05/26 05:03:10;;;;;;;4.61;3.41;;;;;;;;;;364425;147;866103;-61
2021/05/26 05:04:11;;;;;;;7.73;3.40;;;;;;;;;;363029;144;860034;-61
2021/05/26 05:05:13;;;;;;;7.84;3.77;;;;;;;;;;363852;144;858907;-63
2021/05/26 05:06:17;;;;;;;5.63;3.44;;;;;;;;;;365202;144;858841;-62
2021/05/26 05:07:18;;;;;;;4.59;3.45;;;;;;;;;;364838;145;857325;-61
2021/05/26 05:08:20;;;;;;;5.44;3.40;;;;;;;;;;363123;147;860228;-62
2021/05/26 05:09:22;;;;;;;4.47;3.66;;;;;;;;;;362487;147;865206;-62
2021/05/26 05:10:25;;;;;;;3.92;3.46;;;;;;;;;;362661;146;856461;-63
2021/05/26 05:11:27;;;;;;;5.14;3.21;;;;;;;;;;364132;145;858590;-62
2021/05/26 05:12:28;;;;;;;5.68;3.76;;;;;;;;;;361879;146;864883;-62
2021/05/26 05:13:30;;;;;;;5.96;3.27;;;;;;;;;;365071;145;866700;-61
2021/05/26 05:14:32;;;;;;;4.94;3.09;;;;;;;;;;366036;145;859144;-60
2021/05/26 05:15:33;;;;;;;4.62;3.26;;;;;;;;;;364349;147;859178;-61
2021/05/26 05:16:35;;;;;;;4.91;3.39;;;;;;;;;;367123;145;865687;-60
2021/05/26 05:17:37;;;;;;;9.39;3.13;;;;;;;;;;363526;145;860913;-62
2021/05/26 05:18:38;;;;;;;5.05;3.42;;;;;;;;;;366347;145;858903;-63
2021/05/26 05:19:40;;;;;;;4.37;2.93;;;;;;;;;;370035;145;857338;-63
2021/05/26 05:20:43;;;;;;;6.26;3.71;;;;;;;;;;362739;145;857328;-61
2021/05/26 05:21:45;;;;;;;3.56;2.59;;;;;;;;;;365059;145;859452;-63
2021/05/26 05:22:50;;;;;;;5.39;3.30;;;;;;;;;;365816;145;865231;-61
2021/05/26 05:23:52;;;;;;;5.94;3.42;;;;;;;;;;364894;144;859443;-63
2021/05/26 05:24:53;;;;;;;7.59;3.43;;;;;;;;;;369797;145;859332;-60
2021/05/26 05:25:55;;;;;;;5.37;3.02;;;;;;;;;;366910;145;857537;-61
2021/05/26 05:26:57;;;;;;;6.56;3.59;;;;;;;;;;368093;145;857377;-62
2021/05/26 05:27:58;;;;;;;5.04;3.22;;;;;;;;;;365727;144;864913;-62
2021/05/26 05:29:00;;;;;;;9.39;3.44;;;;;;;;;;363402;144;857232;-63
2021/05/26 05:30:03;;;;;;;4.56;3.58;;;;;;;;;;367101;145;857229;-63
2021/05/26 05:31:04;;;;;;;5.66;3.47;;;;;;;;;;362587;147;866625;-63
2021/05/26 05:32:06;;;;;;;5.10;3.14;;;;;;;;;;367010;145;860004;-59
2021/05/26 05:33:08;;;;;;;4.75;3.07;;;;;;;;;;370211;145;865364;-60
2021/05/26 05:34:09;;;;;;;5.29;3.14;;;;;;;;;;364797;144;864919;-60
2021/05/26 05:35:11;;;;;;;3.88;2.95;;;;;;;;;;361584;147;857749;-63
2021/05/26 05:36:13;;;;;;;5.21;3.04;;;;;;;;;;364346;145;857707;-61
2021/05/26 05:37:15;;;;;;;5.34;3.04;;;;;;;;;;363094;145;857891;-63
2021/05/26 05:38:16;;;;;;;7.54;3.49;;;;;;;;;;365642;145;865266;-61
2021/05/26 05:39:18;;;;;;;3.14;2.77;;;;;;;;;;363748;146;857218;-61
2021/05/26 05:40:21;;;;;;;4.66;3.30;;;;;;;;;;367552;145;857722;-61
2021/05/26 05:41:23;;;;;;;5.23;3.03;;;;;;;;;;365433;145;859232;-62
2021/05/26 05:42:24;;;;;;;3.93;2.82;;;;;;;;;;361198;146;858290;-62
2021/05/26 05:43:26;;;;;;;4.35;3.24;;;;;;;;;;360397;149;858990;-61
2021/05/26 05:44:27;;;;;;;3.36;2.81;;;;;;;;;;365851;144;858463;-63
2021/05/26 05:45:29;;;;;;;5.04;2.74;;;;;;;;;;364232;146;858562;-62
2021/05/26 05:46:32;;;;;;;5.09;3.13;;;;;;;;;;362379;148;857532;-63
2021/05/26 05:47:34;;;;;;;4.21;3.37;;;;;;;;;;363283;144;866657;-62
2021/05/26 05:48:36;;;;;;;4.03;2.91;;;;;;;;;;361606;147;860716;-63
2021/05/26 05:49:38;;;;;;;4.36;2.59;;;;;;;;;;360933;145;866660;-63
2021/05/26 05:50:40;;;;;;;4.80;2.54;;;;;;;;;;365605;146;858941;-63
2021/05/26 05:51:41;;;;;;;4.64;2.83;;;;;;;;;;366642;147;857462;-62
2021/05/26 05:52:43;;;;;;;4.90;3.02;;;;;;;;;;363070;145;859219;-60
2021/05/26 05:53:45;;;;;;;4.84;3.13;;;;;;;;;;360162;147;859042;-61
2021/05/26 05:54:46;;;;;;;12.38;4.31;;;;;;;;;;360328;145;858770;-61
2021/05/26 05:55:48;;;;;;;4.02;2.74;;;;;;;;;;360448;147;866001;-61
2021/05/26 05:56:50;;;;;;;4.71;2.89;;;;;;;;;;358866;145;865263;-62
2021/05/26 05:57:53;;;;;;;5.44;2.11;;;;;;;;;;357498;145;865040;-61
2021/05/26 05:58:55;;;;;;;6.03;3.19;;;;;;;;;;359363;147;857864;-62
2021/05/26 05:59:57;;;;;;;4.26;2.68;;;;;;;;;;358271;147;857470;-63
2021/05/26 06:00:58;;;;;;;5.54;2.60;;;;;;;;;;360878;147;864900;-62
2021/05/26 06:02:00;;;;;;;4.32;2.76;;;;;;;;;;359278;147;864886;-62
2021/05/26 06:03:02;;;;;;;4.15;2.82;;;;;;;;;;360887;146;857653;-61
2021/05/26 06:04:04;;;;;;;4.41;2.61;;;;;;;;;;357565;148;865707;-61
2021/05/26 06:05:06;;;;;;;7.36;2.67;;;;;;;;;;359585;147;858399;-61
2021/05/26 06:06:08;;;;;;;4.75;2.67;;;;;;;;;;357094;151;859497;-63
2021/05/26 06:07:10;;;;;;;3.98;2.66;;;;;;;;;;360880;147;861300;-62
2021/05/26 06:08:12;;;;;;;3.42;2.69;;;;;;;;;;363710;147;857752;-61
2021/05/26 06:09:13;;;;;;;8.11;2.56;;;;;;;;;;357647;148;859410;-61
2021/05/26 06:10:16;;;;;;;2.71;2.47;;;;;;;;;;362333;147;859746;-62
2021/05/26 06:11:17;;;;;;;4.32;2.68;;;;;;;;;;362153;148;858883;-61
2021/05/26 06:12:19;;;;;;;7.28;2.72;;;;;;;;;;362534;147;857384;-61
2021/05/26 06:13:21;;;;;;;4.62;2.79;;;;;;;;;;360642;145;857238;-62
2021/05/26 06:14:22;;;;;;;3.94;2.62;;;;;;;;;;363806;146;857265;-63
2021/05/26 06:15:24;;;;;;;3.19;2.39;;;;;;;;;;363832;146;857459;-62
2021/05/26 06:16:25;;;;;;;3.01;2.57;;;;;;;;;;361191;147;857489;-62
2021/05/26 06:17:27;;;;;;;5.51;3.29;;;;;;;;;;357578;148;857511;-63
2021/05/26 06:18:29;;;;;;;4.90;2.98;;;;;;;;;;359883;147;865364;-61
2021/05/26 06:19:30;;;;;;;4.84;2.81;;;;;;;;;;363537;148;857513;-62
2021/05/26 06:20:33;;;;;;;5.66;2.56;;;;;;;;;;363495;148;857488;-61
2021/05/26 06:21:35;;;;;;;4.87;2.88;;;;;;;;;;360786;146;859836;-61
2021/05/26 06:22:37;;;;;;;4.86;2.74;;;;;;;;;;362764;148;857936;-61